sensor_id;sensor_type;location;lat;lon;timestamp;temperature;humidity
76211;DHT22;65003;49.518;11.280;2023-03-14T00:00:15;10.90;93.50
76211;DHT22;65003;49.518;11.280;2023-03-14T00:02:42;10.80;93.40
76211;DHT22;65003;49.518;11.280;2023-03-14T00:05:09;10.80;93.50
76211;DHT22;65003;49.518;11.280;2023-03-14T00:07:37;10.80;93.60
76211;DHT22;65003;49.518;11.280;2023-03-14T00:10:05;10.70;93.60
76211;DHT22;65003;49.518;11.280;2023-03-14T00:12:31;10.70;93.60
76211;DHT22;65003;49.518;11.280;2023-03-14T00:14:57;10.70;93.70
76211;DHT22;65003;49.518;11.280;2023-03-14T00:17:24;10.60;93.60
76211;DHT22;65003;49.518;11.280;2023-03-14T00:19:50;10.60;93.60
76211;DHT22;65003;49.518;11.280;2023-03-14T00:22:18;10.60;93.50
76211;DHT22;65003;49.518;11.280;2023-03-14T00:24:45;10.50;93.60
76211;DHT22;65003;49.518;11.280;2023-03-14T00:27:11;10.50;93.70
76211;DHT22;65003;49.518;11.280;2023-03-14T00:29:38;10.50;93.70
76211;DHT22;65003;49.518;11.280;2023-03-14T00:32:05;10.60;93.50
76211;DHT22;65003;49.518;11.280;2023-03-14T00:34:32;10.60;93.10
76211;DHT22;65003;49.518;11.280;2023-03-14T00:36:58;10.60;92.80
76211;DHT22;65003;49.518;11.280;2023-03-14T00:39:25;10.70;92.80
76211;DHT22;65003;49.518;11.280;2023-03-14T00:41:52;10.80;92.60
76211;DHT22;65003;49.518;11.280;2023-03-14T00:44:18;10.70;92.50
76211;DHT22;65003;49.518;11.280;2023-03-14T00:46:45;10.60;92.90
76211;DHT22;65003;49.518;11.280;2023-03-14T00:49:12;10.50;93.00
76211;DHT22;65003;49.518;11.280;2023-03-14T00:51:39;10.50;93.00
76211;DHT22;65003;49.518;11.280;2023-03-14T00:54:07;10.60;92.90
76211;DHT22;65003;49.518;11.280;2023-03-14T00:56:34;10.60;93.00
76211;DHT22;65003;49.518;11.280;2023-03-14T00:59:01;10.50;93.00
76211;DHT22;65003;49.518;11.280;2023-03-14T01:01:28;10.50;93.10
76211;DHT22;65003;49.518;11.280;2023-03-14T01:03:55;10.50;93.10
76211;DHT22;65003;49.518;11.280;2023-03-14T01:06:24;10.50;92.70
76211;DHT22;65003;49.518;11.280;2023-03-14T01:08:50;10.60;92.90
76211;DHT22;65003;49.518;11.280;2023-03-14T01:11:22;10.60;92.80
76211;DHT22;65003;49.518;11.280;2023-03-14T01:13:46;10.50;92.80
76211;DHT22;65003;49.518;11.280;2023-03-14T01:16:13;10.50;92.60
76211;DHT22;65003;49.518;11.280;2023-03-14T01:18:40;10.50;92.60
76211;DHT22;65003;49.518;11.280;2023-03-14T01:21:12;10.50;92.80
76211;DHT22;65003;49.518;11.280;2023-03-14T01:23:38;10.50;92.50
76211;DHT22;65003;49.518;11.280;2023-03-14T01:26:04;10.60;93.00
76211;DHT22;65003;49.518;11.280;2023-03-14T01:28:31;10.50;92.60
76211;DHT22;65003;49.518;11.280;2023-03-14T01:31:03;10.60;92.50
76211;DHT22;65003;49.518;11.280;2023-03-14T01:33:30;10.50;92.70
76211;DHT22;65003;49.518;11.280;2023-03-14T01:35:57;10.50;92.70
76211;DHT22;65003;49.518;11.280;2023-03-14T01:38:23;10.50;92.80
76211;DHT22;65003;49.518;11.280;2023-03-14T01:40:50;10.50;92.90
76211;DHT22;65003;49.518;11.280;2023-03-14T01:43:18;10.40;93.00
76211;DHT22;65003;49.518;11.280;2023-03-14T01:48:21;10.40;93.10
76211;DHT22;65003;49.518;11.280;2023-03-14T01:50:48;10.40;93.60
76211;DHT22;65003;49.518;11.280;2023-03-14T01:53:15;10.40;93.30
76211;DHT22;65003;49.518;11.280;2023-03-14T01:55:42;10.40;93.20
76211;DHT22;65003;49.518;11.280;2023-03-14T01:58:09;10.50;93.10
76211;DHT22;65003;49.518;11.280;2023-03-14T02:00:35;10.50;93.00
76211;DHT22;65003;49.518;11.280;2023-03-14T02:03:04;10.50;93.10
76211;DHT22;65003;49.518;11.280;2023-03-14T02:05:30;10.50;93.00
76211;DHT22;65003;49.518;11.280;2023-03-14T02:07:56;10.40;93.20
76211;DHT22;65003;49.518;11.280;2023-03-14T02:10:23;10.40;93.10
76211;DHT22;65003;49.518;11.280;2023-03-14T02:12:49;10.40;93.20
76211;DHT22;65003;49.518;11.280;2023-03-14T02:15:16;10.40;93.50
76211;DHT22;65003;49.518;11.280;2023-03-14T02:17:42;10.50;93.20
76211;DHT22;65003;49.518;11.280;2023-03-14T02:20:17;10.60;93.00
76211;DHT22;65003;49.518;11.280;2023-03-14T02:22:40;10.60;93.00
76211;DHT22;65003;49.518;11.280;2023-03-14T02:25:32;10.60;93.00
76211;DHT22;65003;49.518;11.280;2023-03-14T02:27:56;10.50;93.20
76211;DHT22;65003;49.518;11.280;2023-03-14T02:30:24;10.50;93.40
76211;DHT22;65003;49.518;11.280;2023-03-14T02:32:54;10.60;93.20
76211;DHT22;65003;49.518;11.280;2023-03-14T02:35:21;10.60;93.10
76211;DHT22;65003;49.518;11.280;2023-03-14T02:37:52;10.60;93.10
76211;DHT22;65003;49.518;11.280;2023-03-14T02:40:15;10.60;93.00
76211;DHT22;65003;49.518;11.280;2023-03-14T02:42:42;10.60;93.10
76211;DHT22;65003;49.518;11.280;2023-03-14T02:45:40;10.60;93.10
76211;DHT22;65003;49.518;11.280;2023-03-14T02:48:07;10.60;93.20
76211;DHT22;65003;49.518;11.280;2023-03-14T02:50:33;10.60;93.10
76211;DHT22;65003;49.518;11.280;2023-03-14T02:52:59;10.60;93.20
76211;DHT22;65003;49.518;11.280;2023-03-14T02:55:25;10.60;93.20
76211;DHT22;65003;49.518;11.280;2023-03-14T02:57:52;10.60;93.20
76211;DHT22;65003;49.518;11.280;2023-03-14T03:00:19;10.60;93.10
76211;DHT22;65003;49.518;11.280;2023-03-14T03:02:46;10.60;93.30
76211;DHT22;65003;49.518;11.280;2023-03-14T03:05:12;10.50;93.30
76211;DHT22;65003;49.518;11.280;2023-03-14T03:07:39;10.50;93.30
76211;DHT22;65003;49.518;11.280;2023-03-14T03:10:06;10.50;93.30
76211;DHT22;65003;49.518;11.280;2023-03-14T03:12:33;10.50;93.20
76211;DHT22;65003;49.518;11.280;2023-03-14T03:14:59;10.50;93.20
76211;DHT22;65003;49.518;11.280;2023-03-14T03:17:26;10.50;93.20
76211;DHT22;65003;49.518;11.280;2023-03-14T03:19:52;10.40;93.20
76211;DHT22;65003;49.518;11.280;2023-03-14T03:22:19;10.30;93.40
76211;DHT22;65003;49.518;11.280;2023-03-14T03:24:46;10.40;93.40
76211;DHT22;65003;49.518;11.280;2023-03-14T03:27:12;10.30;93.30
76211;DHT22;65003;49.518;11.280;2023-03-14T03:29:39;10.30;93.30
76211;DHT22;65003;49.518;11.280;2023-03-14T03:32:06;10.30;93.30
76211;DHT22;65003;49.518;11.280;2023-03-14T03:34:32;10.30;93.30
76211;DHT22;65003;49.518;11.280;2023-03-14T03:36:59;10.30;93.20
76211;DHT22;65003;49.518;11.280;2023-03-14T03:39:25;10.20;93.30
76211;DHT22;65003;49.518;11.280;2023-03-14T03:41:52;10.20;93.20
76211;DHT22;65003;49.518;11.280;2023-03-14T03:44:19;10.20;93.30
76211;DHT22;65003;49.518;11.280;2023-03-14T03:46:45;10.20;93.20
76211;DHT22;65003;49.518;11.280;2023-03-14T03:49:12;10.20;93.20
76211;DHT22;65003;49.518;11.280;2023-03-14T03:51:39;10.20;93.20
76211;DHT22;65003;49.518;11.280;2023-03-14T03:54:05;10.20;93.20
76211;DHT22;65003;49.518;11.280;2023-03-14T03:56:32;10.10;93.20
76211;DHT22;65003;49.518;11.280;2023-03-14T03:58:58;10.20;93.10
76211;DHT22;65003;49.518;11.280;2023-03-14T04:01:25;10.20;93.00
76211;DHT22;65003;49.518;11.280;2023-03-14T04:03:52;10.20;92.70
76211;DHT22;65003;49.518;11.280;2023-03-14T04:06:19;10.30;92.60
76211;DHT22;65003;49.518;11.280;2023-03-14T04:08:46;10.30;92.40
76211;DHT22;65003;49.518;11.280;2023-03-14T04:11:12;10.30;92.50
76211;DHT22;65003;49.518;11.280;2023-03-14T04:13:39;10.20;92.40
76211;DHT22;65003;49.518;11.280;2023-03-14T04:16:11;10.20;92.40
76211;DHT22;65003;49.518;11.280;2023-03-14T04:18:36;10.20;92.30
76211;DHT22;65003;49.518;11.280;2023-03-14T04:21:02;10.10;92.50
76211;DHT22;65003;49.518;11.280;2023-03-14T04:23:29;10.10;92.30
76211;DHT22;65003;49.518;11.280;2023-03-14T04:25:55;10.10;92.50
76211;DHT22;65003;49.518;11.280;2023-03-14T04:28:22;10.10;92.40
76211;DHT22;65003;49.518;11.280;2023-03-14T04:30:49;10.10;92.50
76211;DHT22;65003;49.518;11.280;2023-03-14T04:33:15;10.00;92.50
76211;DHT22;65003;49.518;11.280;2023-03-14T04:35:42;10.00;92.60
76211;DHT22;65003;49.518;11.280;2023-03-14T04:38:08;10.00;92.60
76211;DHT22;65003;49.518;11.280;2023-03-14T04:40:39;10.00;92.60
76211;DHT22;65003;49.518;11.280;2023-03-14T04:43:04;10.10;92.30
76211;DHT22;65003;49.518;11.280;2023-03-14T04:45:31;10.10;92.30
76211;DHT22;65003;49.518;11.280;2023-03-14T04:48:01;10.10;92.30
76211;DHT22;65003;49.518;11.280;2023-03-14T04:50:28;10.00;92.30
76211;DHT22;65003;49.518;11.280;2023-03-14T04:52:55;9.90;92.50
76211;DHT22;65003;49.518;11.280;2023-03-14T04:55:21;9.90;92.70
76211;DHT22;65003;49.518;11.280;2023-03-14T04:57:48;9.80;92.70
76211;DHT22;65003;49.518;11.280;2023-03-14T05:00:14;9.80;92.80
76211;DHT22;65003;49.518;11.280;2023-03-14T05:02:41;9.80;92.80
76211;DHT22;65003;49.518;11.280;2023-03-14T05:05:08;9.80;92.80
76211;DHT22;65003;49.518;11.280;2023-03-14T05:07:34;9.80;92.90
76211;DHT22;65003;49.518;11.280;2023-03-14T05:10:01;9.70;92.90
76211;DHT22;65003;49.518;11.280;2023-03-14T05:12:28;9.80;92.80
76211;DHT22;65003;49.518;11.280;2023-03-14T05:14:55;9.80;92.70
76211;DHT22;65003;49.518;11.280;2023-03-14T05:17:21;9.70;92.70
76211;DHT22;65003;49.518;11.280;2023-03-14T05:19:49;9.80;92.80
76211;DHT22;65003;49.518;11.280;2023-03-14T05:22:15;9.80;92.60
76211;DHT22;65003;49.518;11.280;2023-03-14T05:24:42;9.80;92.60
76211;DHT22;65003;49.518;11.280;2023-03-14T05:27:09;9.80;92.60
76211;DHT22;65003;49.518;11.280;2023-03-14T05:29:35;9.90;92.50
76211;DHT22;65003;49.518;11.280;2023-03-14T05:32:02;9.80;92.40
76211;DHT22;65003;49.518;11.280;2023-03-14T05:34:28;9.80;92.50
76211;DHT22;65003;49.518;11.280;2023-03-14T05:36:55;9.80;92.60
76211;DHT22;65003;49.518;11.280;2023-03-14T05:39:22;9.70;92.70
76211;DHT22;65003;49.518;11.280;2023-03-14T05:41:48;9.70;93.20
76211;DHT22;65003;49.518;11.280;2023-03-14T05:44:15;9.70;93.30
76211;DHT22;65003;49.518;11.280;2023-03-14T05:46:41;9.60;93.10
76211;DHT22;65003;49.518;11.280;2023-03-14T05:49:08;9.70;92.90
76211;DHT22;65003;49.518;11.280;2023-03-14T05:51:35;9.80;92.70
76211;DHT22;65003;49.518;11.280;2023-03-14T05:54:02;9.90;92.60
76211;DHT22;65003;49.518;11.280;2023-03-14T05:56:34;9.90;92.40
76211;DHT22;65003;49.518;11.280;2023-03-14T05:59:01;9.90;92.40
76211;DHT22;65003;49.518;11.280;2023-03-14T06:01:27;10.00;92.30
76211;DHT22;65003;49.518;11.280;2023-03-14T06:03:54;10.00;92.00
76211;DHT22;65003;49.518;11.280;2023-03-14T06:06:21;10.00;92.10
76211;DHT22;65003;49.518;11.280;2023-03-14T06:08:47;9.90;92.20
76211;DHT22;65003;49.518;11.280;2023-03-14T06:11:15;9.90;92.70
76211;DHT22;65003;49.518;11.280;2023-03-14T06:13:41;8.90;92.10
76211;DHT22;65003;49.518;11.280;2023-03-14T06:16:08;10.10;92.20
76211;DHT22;65003;49.518;11.280;2023-03-14T06:18:35;10.20;92.10
76211;DHT22;65003;49.518;11.280;2023-03-14T06:21:01;10.30;91.80
76211;DHT22;65003;49.518;11.280;2023-03-14T06:23:28;10.30;91.70
76211;DHT22;65003;49.518;11.280;2023-03-14T06:25:54;10.30;91.60
76211;DHT22;65003;49.518;11.280;2023-03-14T06:28:21;10.40;91.60
76211;DHT22;65003;49.518;11.280;2023-03-14T06:30:48;10.50;91.30
76211;DHT22;65003;49.518;11.280;2023-03-14T06:33:14;10.40;91.20
76211;DHT22;65003;49.518;11.280;2023-03-14T06:35:42;10.50;91.50
76211;DHT22;65003;49.518;11.280;2023-03-14T06:38:08;10.50;91.20
76211;DHT22;65003;49.518;11.280;2023-03-14T06:40:35;10.40;91.30
76211;DHT22;65003;49.518;11.280;2023-03-14T06:43:01;10.40;91.40
76211;DHT22;65003;49.518;11.280;2023-03-14T06:45:29;10.40;91.30
76211;DHT22;65003;49.518;11.280;2023-03-14T06:47:55;10.40;91.30
76211;DHT22;65003;49.518;11.280;2023-03-14T06:50:22;10.30;91.40
76211;DHT22;65003;49.518;11.280;2023-03-14T06:52:48;10.30;91.60
76211;DHT22;65003;49.518;11.280;2023-03-14T06:55:16;10.40;91.50
76211;DHT22;65003;49.518;11.280;2023-03-14T06:57:43;10.40;91.30
76211;DHT22;65003;49.518;11.280;2023-03-14T07:00:10;10.50;91.10
76211;DHT22;65003;49.518;11.280;2023-03-14T07:02:37;10.60;91.00
76211;DHT22;65003;49.518;11.280;2023-03-14T07:05:07;10.50;91.10
76211;DHT22;65003;49.518;11.280;2023-03-14T07:07:33;10.40;91.30
76211;DHT22;65003;49.518;11.280;2023-03-14T07:10:00;10.50;91.60
76211;DHT22;65003;49.518;11.280;2023-03-14T07:12:26;10.50;91.20
76211;DHT22;65003;49.518;11.280;2023-03-14T07:14:53;10.50;91.10
76211;DHT22;65003;49.518;11.280;2023-03-14T07:17:20;10.40;91.20
76211;DHT22;65003;49.518;11.280;2023-03-14T07:19:48;10.40;91.40
76211;DHT22;65003;49.518;11.280;2023-03-14T07:22:15;10.50;91.10
76211;DHT22;65003;49.518;11.280;2023-03-14T07:24:42;10.50;91.20
76211;DHT22;65003;49.518;11.280;2023-03-14T07:27:08;10.60;91.10
76211;DHT22;65003;49.518;11.280;2023-03-14T07:29:35;10.60;90.90
76211;DHT22;65003;49.518;11.280;2023-03-14T07:32:02;10.60;91.10
76211;DHT22;65003;49.518;11.280;2023-03-14T07:34:28;10.70;90.90
76211;DHT22;65003;49.518;11.280;2023-03-14T07:36:55;10.70;91.00
76211;DHT22;65003;49.518;11.280;2023-03-14T07:39:21;10.70;90.60
76211;DHT22;65003;49.518;11.280;2023-03-14T07:41:48;10.70;90.60
76211;DHT22;65003;49.518;11.280;2023-03-14T07:44:14;10.80;90.40
76211;DHT22;65003;49.518;11.280;2023-03-14T07:46:42;10.80;90.40
76211;DHT22;65003;49.518;11.280;2023-03-14T07:49:08;10.90;90.30
76211;DHT22;65003;49.518;11.280;2023-03-14T07:51:35;11.00;90.00
76211;DHT22;65003;49.518;11.280;2023-03-14T07:54:02;11.10;89.60
76211;DHT22;65003;49.518;11.280;2023-03-14T07:56:28;11.20;89.50
76211;DHT22;65003;49.518;11.280;2023-03-14T07:58:55;11.40;88.40
76211;DHT22;65003;49.518;11.280;2023-03-14T08:01:21;11.60;87.60
76211;DHT22;65003;49.518;11.280;2023-03-14T08:03:48;11.50;86.90
76211;DHT22;65003;49.518;11.280;2023-03-14T08:06:15;11.40;87.30
76211;DHT22;65003;49.518;11.280;2023-03-14T08:08:42;11.30;87.00
76211;DHT22;65003;49.518;11.280;2023-03-14T08:11:09;11.30;87.70
76211;DHT22;65003;49.518;11.280;2023-03-14T08:13:36;11.30;87.00
76211;DHT22;65003;49.518;11.280;2023-03-14T08:16:03;11.40;86.40
76211;DHT22;65003;49.518;11.280;2023-03-14T08:18:30;11.70;85.80
76211;DHT22;65003;49.518;11.280;2023-03-14T08:20:56;12.00;84.40
76211;DHT22;65003;49.518;11.280;2023-03-14T08:23:23;12.40;83.20
76211;DHT22;65003;49.518;11.280;2023-03-14T08:25:50;12.80;81.60
76211;DHT22;65003;49.518;11.280;2023-03-14T08:28:16;13.00;80.60
76211;DHT22;65003;49.518;11.280;2023-03-14T08:30:43;13.10;80.40
76211;DHT22;65003;49.518;11.280;2023-03-14T08:33:09;13.30;79.20
76211;DHT22;65003;49.518;11.280;2023-03-14T08:35:37;13.30;78.40
76211;DHT22;65003;49.518;11.280;2023-03-14T08:38:04;13.30;78.80
76211;DHT22;65003;49.518;11.280;2023-03-14T08:40:31;13.50;77.60
76211;DHT22;65003;49.518;11.280;2023-03-14T08:42:59;14.00;77.30
76211;DHT22;65003;49.518;11.280;2023-03-14T08:45:26;14.20;74.40
76211;DHT22;65003;49.518;11.280;2023-03-14T08:47:52;14.00;74.30
76211;DHT22;65003;49.518;11.280;2023-03-14T08:50:20;14.00;75.10
76211;DHT22;65003;49.518;11.280;2023-03-14T08:52:46;14.10;74.60
76211;DHT22;65003;49.518;11.280;2023-03-14T08:55:13;14.00;75.10
76211;DHT22;65003;49.518;11.280;2023-03-14T08:57:40;14.20;75.30
76211;DHT22;65003;49.518;11.280;2023-03-14T09:00:08;14.20;74.20
76211;DHT22;65003;49.518;11.280;2023-03-14T09:02:37;14.70;73.00
76211;DHT22;65003;49.518;11.280;2023-03-14T09:05:04;15.30;70.80
76211;DHT22;65003;49.518;11.280;2023-03-14T09:07:30;15.90;67.20
76211;DHT22;65003;49.518;11.280;2023-03-14T09:09:59;16.30;66.00
76211;DHT22;65003;49.518;11.280;2023-03-14T09:12:25;16.30;65.20
76211;DHT22;65003;49.518;11.280;2023-03-14T09:14:52;15.70;66.50
76211;DHT22;65003;49.518;11.280;2023-03-14T09:17:19;15.20;67.50
76211;DHT22;65003;49.518;11.280;2023-03-14T09:19:46;14.70;69.80
76211;DHT22;65003;49.518;11.280;2023-03-14T09:22:13;14.40;71.40
76211;DHT22;65003;49.518;11.280;2023-03-14T09:24:41;14.40;72.00
76211;DHT22;65003;49.518;11.280;2023-03-14T09:27:07;14.80;71.00
76211;DHT22;65003;49.518;11.280;2023-03-14T09:29:34;15.90;67.10
76211;DHT22;65003;49.518;11.280;2023-03-14T09:32:00;16.90;64.10
76211;DHT22;65003;49.518;11.280;2023-03-14T09:34:27;17.90;60.90
76211;DHT22;65003;49.518;11.280;2023-03-14T09:36:54;18.50;57.30
76211;DHT22;65003;49.518;11.280;2023-03-14T09:39:20;18.80;57.20
76211;DHT22;65003;49.518;11.280;2023-03-14T09:41:47;18.70;55.50
76211;DHT22;65003;49.518;11.280;2023-03-14T09:44:16;18.50;56.70
76211;DHT22;65003;49.518;11.280;2023-03-14T09:46:43;17.70;57.70
76211;DHT22;65003;49.518;11.280;2023-03-14T09:49:19;17.10;59.70
76211;DHT22;65003;49.518;11.280;2023-03-14T09:51:38;16.80;60.20
76211;DHT22;65003;49.518;11.280;2023-03-14T09:54:04;16.50;60.50
76211;DHT22;65003;49.518;11.280;2023-03-14T09:56:31;16.30;61.10
76211;DHT22;65003;49.518;11.280;2023-03-14T09:58:59;16.10;62.30
76211;DHT22;65003;49.518;11.280;2023-03-14T10:01:25;15.70;62.90
76211;DHT22;65003;49.518;11.280;2023-03-14T10:03:53;15.20;64.70
76211;DHT22;65003;49.518;11.280;2023-03-14T10:06:18;14.70;66.20
76211;DHT22;65003;49.518;11.280;2023-03-14T10:08:45;14.30;67.70
76211;DHT22;65003;49.518;11.280;2023-03-14T10:11:16;13.90;69.30
76211;DHT22;65003;49.518;11.280;2023-03-14T10:13:49;13.80;69.90
76211;DHT22;65003;49.518;11.280;2023-03-14T10:16:14;13.50;70.70
76211;DHT22;65003;49.518;11.280;2023-03-14T10:18:44;13.40;71.10
76211;DHT22;65003;49.518;11.280;2023-03-14T10:21:27;13.30;72.20
76211;DHT22;65003;49.518;11.280;2023-03-14T10:23:53;13.30;75.10
76211;DHT22;65003;49.518;11.280;2023-03-14T10:26:24;13.40;72.40
76211;DHT22;65003;49.518;11.280;2023-03-14T10:28:52;13.50;72.60
76211;DHT22;65003;49.518;11.280;2023-03-14T10:31:18;13.70;72.00
76211;DHT22;65003;49.518;11.280;2023-03-14T10:33:57;13.90;71.00
76211;DHT22;65003;49.518;11.280;2023-03-14T10:36:21;13.90;71.10
76211;DHT22;65003;49.518;11.280;2023-03-14T10:38:49;13.70;71.10
76211;DHT22;65003;49.518;11.280;2023-03-14T10:41:19;13.50;71.70
76211;DHT22;65003;49.518;11.280;2023-03-14T10:43:43;13.30;72.30
76211;DHT22;65003;49.518;11.280;2023-03-14T10:46:13;13.10;72.20
76211;DHT22;65003;49.518;11.280;2023-03-14T10:48:39;13.00;73.10
76211;DHT22;65003;49.518;11.280;2023-03-14T10:51:18;13.00;73.30
76211;DHT22;65003;49.518;11.280;2023-03-14T10:53:42;13.00;73.30
76211;DHT22;65003;49.518;11.280;2023-03-14T10:56:09;13.10;72.90
76211;DHT22;65003;49.518;11.280;2023-03-14T10:58:36;13.10;72.70
76211;DHT22;65003;49.518;11.280;2023-03-14T11:01:11;13.10;72.80
76211;DHT22;65003;49.518;11.280;2023-03-14T11:03:33;13.10;73.00
76211;DHT22;65003;49.518;11.280;2023-03-14T11:06:05;13.10;72.70
76211;DHT22;65003;49.518;11.280;2023-03-14T11:08:31;13.10;73.00
76211;DHT22;65003;49.518;11.280;2023-03-14T11:11:04;13.10;72.80
76211;DHT22;65003;49.518;11.280;2023-03-14T11:13:35;12.90;72.90
76211;DHT22;65003;49.518;11.280;2023-03-14T11:16:03;12.80;74.30
76211;DHT22;65003;49.518;11.280;2023-03-14T11:18:43;12.80;76.10
76211;DHT22;65003;49.518;11.280;2023-03-14T11:24:12;12.60;77.20
76211;DHT22;65003;49.518;11.280;2023-03-14T11:26:37;12.60;78.20
76211;DHT22;65003;49.518;11.280;2023-03-14T11:29:11;12.60;79.60
76211;DHT22;65003;49.518;11.280;2023-03-14T11:31:35;12.50;78.60
76211;DHT22;65003;49.518;11.280;2023-03-14T11:37:04;12.20;81.30
76211;DHT22;65003;49.518;11.280;2023-03-14T11:39:35;12.20;82.30
76211;DHT22;65003;49.518;11.280;2023-03-14T11:41:57;12.30;83.50
76211;DHT22;65003;49.518;11.280;2023-03-14T11:44:24;12.40;83.60
76211;DHT22;65003;49.518;11.280;2023-03-14T11:46:56;12.40;84.60
76211;DHT22;65003;49.518;11.280;2023-03-14T11:49:43;12.40;85.40
76211;DHT22;65003;49.518;11.280;2023-03-14T11:52:10;12.90;85.70
76211;DHT22;65003;49.518;11.280;2023-03-14T11:54:50;13.80;82.50
76211;DHT22;65003;49.518;11.280;2023-03-14T11:57:16;14.50;81.00
76211;DHT22;65003;49.518;11.280;2023-03-14T12:00:18;15.10;77.00
76211;DHT22;65003;49.518;11.280;2023-03-14T12:02:51;15.40;75.90
76211;DHT22;65003;49.518;11.280;2023-03-14T12:08:22;16.00;72.20
76211;DHT22;65003;49.518;11.280;2023-03-14T12:10:48;16.10;71.50
76211;DHT22;65003;49.518;11.280;2023-03-14T12:13:15;16.30;69.80
76211;DHT22;65003;49.518;11.280;2023-03-14T12:15:48;16.40;70.80
76211;DHT22;65003;49.518;11.280;2023-03-14T12:18:32;16.50;69.80
76211;DHT22;65003;49.518;11.280;2023-03-14T12:21:02;16.30;68.90
76211;DHT22;65003;49.518;11.280;2023-03-14T12:23:36;15.80;70.90
76211;DHT22;65003;49.518;11.280;2023-03-14T12:26:07;15.60;71.60
76211;DHT22;65003;49.518;11.280;2023-03-14T12:28:33;15.70;69.80
76211;DHT22;65003;49.518;11.280;2023-03-14T12:33:38;16.00;68.90
76211;DHT22;65003;49.518;11.280;2023-03-14T12:36:11;16.00;69.40
76211;DHT22;65003;49.518;11.280;2023-03-14T12:38:48;15.90;67.90
76211;DHT22;65003;49.518;11.280;2023-03-14T12:41:18;15.70;66.60
76211;DHT22;65003;49.518;11.280;2023-03-14T12:43:43;15.30;66.70
76211;DHT22;65003;49.518;11.280;2023-03-14T12:46:25;14.90;68.50
76211;DHT22;65003;49.518;11.280;2023-03-14T12:48:55;14.60;69.30
76211;DHT22;65003;49.518;11.280;2023-03-14T12:51:45;14.50;68.50
76211;DHT22;65003;49.518;11.280;2023-03-14T12:56:57;14.40;67.70
76211;DHT22;65003;49.518;11.280;2023-03-14T12:59:39;14.40;66.90
76211;DHT22;65003;49.518;11.280;2023-03-14T13:02:23;14.40;67.90
76211;DHT22;65003;49.518;11.280;2023-03-14T13:04:50;14.20;66.70
76211;DHT22;65003;49.518;11.280;2023-03-14T13:10:05;13.90;65.80
76211;DHT22;65003;49.518;11.280;2023-03-14T13:12:38;13.80;67.00
76211;DHT22;65003;49.518;11.280;2023-03-14T13:15:11;13.70;68.10
76211;DHT22;65003;49.518;11.280;2023-03-14T13:17:32;13.60;67.80
76211;DHT22;65003;49.518;11.280;2023-03-14T13:19:57;13.50;70.80
76211;DHT22;65003;49.518;11.280;2023-03-14T13:22:27;13.20;73.80
76211;DHT22;65003;49.518;11.280;2023-03-14T13:25:00;13.00;74.80
76211;DHT22;65003;49.518;11.280;2023-03-14T13:27:29;12.70;77.50
76211;DHT22;65003;49.518;11.280;2023-03-14T13:29:54;12.50;78.80
76211;DHT22;65003;49.518;11.280;2023-03-14T13:32:25;12.30;78.70
76211;DHT22;65003;49.518;11.280;2023-03-14T13:34:49;12.20;78.10
76211;DHT22;65003;49.518;11.280;2023-03-14T13:37:21;12.00;78.50
76211;DHT22;65003;49.518;11.280;2023-03-14T13:39:51;12.00;79.10
76211;DHT22;65003;49.518;11.280;2023-03-14T13:42:18;11.90;79.10
76211;DHT22;65003;49.518;11.280;2023-03-14T13:44:44;11.80;81.30
76211;DHT22;65003;49.518;11.280;2023-03-14T13:47:16;11.70;81.50
76211;DHT22;65003;49.518;11.280;2023-03-14T13:49:42;11.60;82.90
76211;DHT22;65003;49.518;11.280;2023-03-14T13:52:30;11.50;85.20
76211;DHT22;65003;49.518;11.280;2023-03-14T13:54:56;11.40;86.10
76211;DHT22;65003;49.518;11.280;2023-03-14T13:57:23;11.30;87.60
76211;DHT22;65003;49.518;11.280;2023-03-14T14:00:06;11.20;88.80
76211;DHT22;65003;49.518;11.280;2023-03-14T14:02:36;11.20;89.70
76211;DHT22;65003;49.518;11.280;2023-03-14T14:05:03;11.10;90.00
76211;DHT22;65003;49.518;11.280;2023-03-14T14:07:30;11.00;90.00
76211;DHT22;65003;49.518;11.280;2023-03-14T14:09:57;11.00;90.60
76211;DHT22;65003;49.518;11.280;2023-03-14T14:12:35;11.00;90.30
76211;DHT22;65003;49.518;11.280;2023-03-14T14:15:04;11.00;90.60
76211;DHT22;65003;49.518;11.280;2023-03-14T14:17:35;10.90;90.60
76211;DHT22;65003;49.518;11.280;2023-03-14T14:20:02;10.80;90.90
76211;DHT22;65003;49.518;11.280;2023-03-14T14:22:30;10.70;91.40
76211;DHT22;65003;49.518;11.280;2023-03-14T14:24:56;10.70;91.90
76211;DHT22;65003;49.518;11.280;2023-03-14T14:27:32;10.60;91.80
76211;DHT22;65003;49.518;11.280;2023-03-14T14:29:58;10.50;92.30
76211;DHT22;65003;49.518;11.280;2023-03-14T14:32:23;10.50;92.50
76211;DHT22;65003;49.518;11.280;2023-03-14T14:34:58;10.30;92.60
76211;DHT22;65003;49.518;11.280;2023-03-14T14:37:26;10.30;93.00
76211;DHT22;65003;49.518;11.280;2023-03-14T14:39:52;10.20;93.00
76211;DHT22;65003;49.518;11.280;2023-03-14T14:42:19;10.10;92.90
76211;DHT22;65003;49.518;11.280;2023-03-14T14:44:45;10.00;93.70
76211;DHT22;65003;49.518;11.280;2023-03-14T14:47:13;10.00;93.50
76211;DHT22;65003;49.518;11.280;2023-03-14T14:49:40;10.00;93.10
76211;DHT22;65003;49.518;11.280;2023-03-14T14:52:12;10.00;93.00
76211;DHT22;65003;49.518;11.280;2023-03-14T14:54:38;9.80;93.30
76211;DHT22;65003;49.518;11.280;2023-03-14T14:57:05;9.70;92.70
76211;DHT22;65003;49.518;11.280;2023-03-14T14:59:30;9.60;93.10
76211;DHT22;65003;49.518;11.280;2023-03-14T15:01:59;9.50;93.20
76211;DHT22;65003;49.518;11.280;2023-03-14T15:04:27;9.30;93.00
76211;DHT22;65003;49.518;11.280;2023-03-14T15:06:54;9.00;92.20
76211;DHT22;65003;49.518;11.280;2023-03-14T15:09:20;8.70;92.70
76211;DHT22;65003;49.518;11.280;2023-03-14T15:11:48;8.50;92.10
76211;DHT22;65003;49.518;11.280;2023-03-14T15:14:14;8.40;92.40
76211;DHT22;65003;49.518;11.280;2023-03-14T15:16:41;8.30;92.50
76211;DHT22;65003;49.518;11.280;2023-03-14T15:19:12;8.20;92.90
76211;DHT22;65003;49.518;11.280;2023-03-14T15:21:38;8.20;92.70
76211;DHT22;65003;49.518;11.280;2023-03-14T15:24:05;8.10;92.80
76211;DHT22;65003;49.518;11.280;2023-03-14T15:26:32;8.10;92.60
76211;DHT22;65003;49.518;11.280;2023-03-14T15:28:58;8.10;92.50
76211;DHT22;65003;49.518;11.280;2023-03-14T15:31:26;8.00;92.60
76211;DHT22;65003;49.518;11.280;2023-03-14T15:34:02;7.90;93.20
76211;DHT22;65003;49.518;11.280;2023-03-14T15:36:30;8.00;93.50
76211;DHT22;65003;49.518;11.280;2023-03-14T15:38:56;8.00;93.90
76211;DHT22;65003;49.518;11.280;2023-03-14T15:41:23;8.00;94.00